sensor_id;sensor_type;location;lat;lon;timestamp;P1;durP1;ratioP1;P2;durP2;ratioP2
10963;SDS011;5534;48.784;9.190;2023-06-22T00:01:58;5.85;;;4.28;;
10963;SDS011;5534;48.784;9.190;2023-06-22T00:04:24;5.18;;;4.68;;
10963;SDS011;5534;48.784;9.190;2023-06-22T00:06:50;8.23;;;4.82;;
10963;SDS011;5534;48.784;9.190;2023-06-22T00:09:16;4.70;;;4.20;;
10963;SDS011;5534;48.784;9.190;2023-06-22T00:11:41;5.32;;;4.50;;
10963;SDS011;5534;48.784;9.190;2023-06-22T00:14:07;5.53;;;4.50;;
10963;SDS011;5534;48.784;9.190;2023-06-22T00:16:34;6.32;;;4.85;;
10963;SDS011;5534;48.784;9.190;2023-06-22T00:19:00;6.25;;;4.97;;
10963;SDS011;5534;48.784;9.190;2023-06-22T00:21:27;5.80;;;4.40;;
10963;SDS011;5534;48.784;9.190;2023-06-22T00:23:52;6.68;;;5.38;;
10963;SDS011;5534;48.784;9.190;2023-06-22T00:26:18;5.55;;;5.00;;
10963;SDS011;5534;48.784;9.190;2023-06-22T00:28:44;8.10;;;5.75;;
10963;SDS011;5534;48.784;9.190;2023-06-22T00:31:10;6.97;;;5.47;;
10963;SDS011;5534;48.784;9.190;2023-06-22T00:33:36;8.77;;;5.85;;
10963;SDS011;5534;48.784;9.190;2023-06-22T00:36:02;6.65;;;4.97;;
10963;SDS011;5534;48.784;9.190;2023-06-22T00:38:29;7.55;;;5.35;;
10963;SDS011;5534;48.784;9.190;2023-06-22T00:40:54;7.65;;;5.45;;
10963;SDS011;5534;48.784;9.190;2023-06-22T00:43:20;5.00;;;4.30;;
10963;SDS011;5534;48.784;9.190;2023-06-22T00:45:46;5.20;;;4.43;;
10963;SDS011;5534;48.784;9.190;2023-06-22T00:48:12;6.25;;;5.15;;
10963;SDS011;5534;48.784;9.190;2023-06-22T00:50:39;6.50;;;5.00;;
10963;SDS011;5534;48.784;9.190;2023-06-22T00:53:06;6.05;;;4.88;;
10963;SDS011;5534;48.784;9.190;2023-06-22T00:55:36;7.60;;;5.10;;
10963;SDS011;5534;48.784;9.190;2023-06-22T00:58:04;7.10;;;4.90;;
10963;SDS011;5534;48.784;9.190;2023-06-22T01:00:33;7.07;;;4.47;;
10963;SDS011;5534;48.784;9.190;2023-06-22T01:02:59;7.25;;;5.05;;
10963;SDS011;5534;48.784;9.190;2023-06-22T01:05:25;5.57;;;4.38;;
10963;SDS011;5534;48.784;9.190;2023-06-22T01:16:09;6.68;;;4.78;;
10963;SDS011;5534;48.784;9.190;2023-06-22T01:18:43;6.57;;;5.45;;
10963;SDS011;5534;48.784;9.190;2023-06-22T01:21:11;6.03;;;5.05;;
10963;SDS011;5534;48.784;9.190;2023-06-22T01:26:48;7.53;;;4.90;;
10963;SDS011;5534;48.784;9.190;2023-06-22T01:29:17;6.35;;;5.43;;
10963;SDS011;5534;48.784;9.190;2023-06-22T01:31:44;7.22;;;5.03;;
10963;SDS011;5534;48.784;9.190;2023-06-22T01:34:13;7.90;;;5.07;;
10963;SDS011;5534;48.784;9.190;2023-06-22T01:36:40;9.77;;;4.95;;
10963;SDS011;5534;48.784;9.190;2023-06-22T01:39:06;8.10;;;4.82;;
10963;SDS011;5534;48.784;9.190;2023-06-22T01:41:37;9.18;;;5.78;;
10963;SDS011;5534;48.784;9.190;2023-06-22T01:44:07;6.57;;;5.25;;
10963;SDS011;5534;48.784;9.190;2023-06-22T01:46:37;7.30;;;6.13;;
10963;SDS011;5534;48.784;9.190;2023-06-22T01:49:04;7.95;;;5.30;;
10963;SDS011;5534;48.784;9.190;2023-06-22T01:51:31;6.57;;;4.85;;
10963;SDS011;5534;48.784;9.190;2023-06-22T01:53:57;6.53;;;5.32;;
10963;SDS011;5534;48.784;9.190;2023-06-22T01:56:22;7.57;;;5.30;;
10963;SDS011;5534;48.784;9.190;2023-06-22T01:58:50;7.53;;;4.93;;
10963;SDS011;5534;48.784;9.190;2023-06-22T02:01:41;7.97;;;5.15;;
10963;SDS011;5534;48.784;9.190;2023-06-22T02:04:12;7.45;;;4.97;;
10963;SDS011;5534;48.784;9.190;2023-06-22T02:06:44;7.88;;;5.40;;
10963;SDS011;5534;48.784;9.190;2023-06-22T02:09:14;8.68;;;5.60;;
10963;SDS011;5534;48.784;9.190;2023-06-22T02:11:42;8.80;;;5.95;;
10963;SDS011;5534;48.784;9.190;2023-06-22T02:14:10;7.22;;;5.10;;
10963;SDS011;5534;48.784;9.190;2023-06-22T02:16:38;9.10;;;5.10;;
10963;SDS011;5534;48.784;9.190;2023-06-22T02:19:04;8.90;;;5.22;;
10963;SDS011;5534;48.784;9.190;2023-06-22T02:21:31;7.63;;;5.35;;
10963;SDS011;5534;48.784;9.190;2023-06-22T02:23:57;7.82;;;5.60;;
10963;SDS011;5534;48.784;9.190;2023-06-22T02:26:24;5.68;;;5.07;;
10963;SDS011;5534;48.784;9.190;2023-06-22T02:28:50;6.18;;;5.05;;
10963;SDS011;5534;48.784;9.190;2023-06-22T02:31:17;6.75;;;5.55;;
10963;SDS011;5534;48.784;9.190;2023-06-22T02:33:43;8.45;;;5.72;;
10963;SDS011;5534;48.784;9.190;2023-06-22T02:36:09;7.25;;;5.35;;
10963;SDS011;5534;48.784;9.190;2023-06-22T02:38:41;9.25;;;5.65;;
10963;SDS011;5534;48.784;9.190;2023-06-22T02:41:13;8.00;;;5.07;;
10963;SDS011;5534;48.784;9.190;2023-06-22T02:43:45;6.78;;;5.20;;
10963;SDS011;5534;48.784;9.190;2023-06-22T02:46:11;6.22;;;5.15;;
10963;SDS011;5534;48.784;9.190;2023-06-22T02:48:38;9.15;;;6.25;;
10963;SDS011;5534;48.784;9.190;2023-06-22T02:51:05;9.50;;;5.22;;
10963;SDS011;5534;48.784;9.190;2023-06-22T02:53:31;6.88;;;5.43;;
10963;SDS011;5534;48.784;9.190;2023-06-22T02:55:57;8.27;;;5.43;;
10963;SDS011;5534;48.784;9.190;2023-06-22T02:58:23;7.75;;;5.22;;
10963;SDS011;5534;48.784;9.190;2023-06-22T03:00:49;7.35;;;5.30;;
10963;SDS011;5534;48.784;9.190;2023-06-22T03:03:18;7.80;;;5.22;;
10963;SDS011;5534;48.784;9.190;2023-06-22T03:05:44;8.18;;;5.22;;
10963;SDS011;5534;48.784;9.190;2023-06-22T03:08:10;6.32;;;4.95;;
10963;SDS011;5534;48.784;9.190;2023-06-22T03:10:36;6.97;;;5.15;;
10963;SDS011;5534;48.784;9.190;2023-06-22T03:13:02;6.72;;;5.25;;
10963;SDS011;5534;48.784;9.190;2023-06-22T03:15:28;7.82;;;5.85;;
10963;SDS011;5534;48.784;9.190;2023-06-22T03:17:57;8.07;;;5.78;;
10963;SDS011;5534;48.784;9.190;2023-06-22T03:20:23;11.10;;;5.47;;
10963;SDS011;5534;48.784;9.190;2023-06-22T03:22:50;7.93;;;5.70;;
10963;SDS011;5534;48.784;9.190;2023-06-22T03:25:15;8.48;;;5.75;;
10963;SDS011;5534;48.784;9.190;2023-06-22T03:27:41;6.88;;;5.75;;
10963;SDS011;5534;48.784;9.190;2023-06-22T03:30:09;6.15;;;5.47;;
10963;SDS011;5534;48.784;9.190;2023-06-22T03:32:36;6.65;;;5.38;;
10963;SDS011;5534;48.784;9.190;2023-06-22T03:35:02;7.75;;;5.38;;
10963;SDS011;5534;48.784;9.190;2023-06-22T03:37:29;12.75;;;6.63;;
10963;SDS011;5534;48.784;9.190;2023-06-22T03:39:54;6.55;;;5.13;;
10963;SDS011;5534;48.784;9.190;2023-06-22T03:42:20;7.18;;;5.28;;
10963;SDS011;5534;48.784;9.190;2023-06-22T03:44:46;6.75;;;4.97;;
10963;SDS011;5534;48.784;9.190;2023-06-22T03:47:12;6.80;;;5.18;;
10963;SDS011;5534;48.784;9.190;2023-06-22T03:49:38;7.72;;;5.53;;
10963;SDS011;5534;48.784;9.190;2023-06-22T03:52:04;7.78;;;5.63;;
10963;SDS011;5534;48.784;9.190;2023-06-22T03:54:30;8.88;;;5.47;;
10963;SDS011;5534;48.784;9.190;2023-06-22T03:56:57;6.82;;;4.82;;
10963;SDS011;5534;48.784;9.190;2023-06-22T03:59:23;5.57;;;5.00;;
10963;SDS011;5534;48.784;9.190;2023-06-22T04:01:49;5.78;;;5.18;;
10963;SDS011;5534;48.784;9.190;2023-06-22T04:04:15;7.68;;;5.63;;
10963;SDS011;5534;48.784;9.190;2023-06-22T04:06:42;10.68;;;5.50;;
10963;SDS011;5534;48.784;9.190;2023-06-22T04:09:08;7.30;;;5.60;;
10963;SDS011;5534;48.784;9.190;2023-06-22T04:11:34;8.02;;;5.60;;
10963;SDS011;5534;48.784;9.190;2023-06-22T04:14:00;6.40;;;5.15;;
10963;SDS011;5534;48.784;9.190;2023-06-22T04:16:25;6.43;;;5.60;;
10963;SDS011;5534;48.784;9.190;2023-06-22T04:18:51;9.20;;;6.07;;
10963;SDS011;5534;48.784;9.190;2023-06-22T04:21:17;10.43;;;5.72;;
10963;SDS011;5534;48.784;9.190;2023-06-22T04:23:47;6.85;;;5.95;;
10963;SDS011;5534;48.784;9.190;2023-06-22T04:26:13;7.60;;;6.05;;
10963;SDS011;5534;48.784;9.190;2023-06-22T04:28:42;9.98;;;5.75;;
10963;SDS011;5534;48.784;9.190;2023-06-22T04:31:07;7.78;;;5.75;;
10963;SDS011;5534;48.784;9.190;2023-06-22T04:33:33;7.32;;;5.78;;
10963;SDS011;5534;48.784;9.190;2023-06-22T04:35:59;7.80;;;5.95;;
10963;SDS011;5534;48.784;9.190;2023-06-22T04:38:29;8.65;;;6.65;;
10963;SDS011;5534;48.784;9.190;2023-06-22T04:40:58;8.68;;;5.78;;
10963;SDS011;5534;48.784;9.190;2023-06-22T04:43:24;8.55;;;6.13;;
10963;SDS011;5534;48.784;9.190;2023-06-22T04:45:49;8.82;;;6.22;;
10963;SDS011;5534;48.784;9.190;2023-06-22T04:48:17;8.50;;;5.95;;
10963;SDS011;5534;48.784;9.190;2023-06-22T04:50:45;10.45;;;6.00;;
10963;SDS011;5534;48.784;9.190;2023-06-22T04:53:12;8.63;;;6.38;;
10963;SDS011;5534;48.784;9.190;2023-06-22T04:55:37;10.93;;;7.72;;
10963;SDS011;5534;48.784;9.190;2023-06-22T04:58:06;9.57;;;7.70;;
10963;SDS011;5534;48.784;9.190;2023-06-22T05:00:33;8.48;;;5.82;;
10963;SDS011;5534;48.784;9.190;2023-06-22T05:03:01;9.02;;;6.40;;
10963;SDS011;5534;48.784;9.190;2023-06-22T05:05:29;10.80;;;6.35;;
10963;SDS011;5534;48.784;9.190;2023-06-22T05:07:57;10.70;;;5.90;;
10963;SDS011;5534;48.784;9.190;2023-06-22T05:10:26;7.30;;;5.57;;
10963;SDS011;5534;48.784;9.190;2023-06-22T05:12:52;9.45;;;6.60;;
10963;SDS011;5534;48.784;9.190;2023-06-22T05:15:18;7.75;;;5.82;;
10963;SDS011;5534;48.784;9.190;2023-06-22T05:17:48;9.25;;;5.75;;
10963;SDS011;5534;48.784;9.190;2023-06-22T05:20:13;7.32;;;5.70;;
10963;SDS011;5534;48.784;9.190;2023-06-22T05:22:43;8.05;;;5.95;;
10963;SDS011;5534;48.784;9.190;2023-06-22T05:25:09;7.32;;;6.40;;
10963;SDS011;5534;48.784;9.190;2023-06-22T05:27:36;6.65;;;5.95;;
10963;SDS011;5534;48.784;9.190;2023-06-22T05:30:08;7.75;;;5.53;;
10963;SDS011;5534;48.784;9.190;2023-06-22T05:32:35;10.60;;;7.50;;
10963;SDS011;5534;48.784;9.190;2023-06-22T05:35:02;7.78;;;6.20;;
10963;SDS011;5534;48.784;9.190;2023-06-22T05:37:28;7.60;;;6.30;;
10963;SDS011;5534;48.784;9.190;2023-06-22T05:39:54;9.05;;;5.43;;
10963;SDS011;5534;48.784;9.190;2023-06-22T05:42:20;7.18;;;5.60;;
10963;SDS011;5534;48.784;9.190;2023-06-22T05:44:46;7.28;;;5.45;;
10963;SDS011;5534;48.784;9.190;2023-06-22T05:47:12;8.85;;;5.57;;
10963;SDS011;5534;48.784;9.190;2023-06-22T05:49:39;6.65;;;5.15;;
10963;SDS011;5534;48.784;9.190;2023-06-22T05:52:05;8.85;;;6.00;;
10963;SDS011;5534;48.784;9.190;2023-06-22T05:54:31;7.03;;;4.47;;
10963;SDS011;5534;48.784;9.190;2023-06-22T05:56:56;8.80;;;4.68;;
10963;SDS011;5534;48.784;9.190;2023-06-22T05:59:22;9.57;;;4.88;;
10963;SDS011;5534;48.784;9.190;2023-06-22T06:01:48;8.75;;;4.85;;
10963;SDS011;5534;48.784;9.190;2023-06-22T06:04:17;5.93;;;4.60;;
10963;SDS011;5534;48.784;9.190;2023-06-22T06:06:43;7.07;;;4.63;;
10963;SDS011;5534;48.784;9.190;2023-06-22T06:09:10;6.82;;;4.63;;
10963;SDS011;5534;48.784;9.190;2023-06-22T06:11:37;7.78;;;4.13;;
10963;SDS011;5534;48.784;9.190;2023-06-22T06:14:03;7.90;;;4.53;;
10963;SDS011;5534;48.784;9.190;2023-06-22T06:16:29;8.15;;;4.78;;
10963;SDS011;5534;48.784;9.190;2023-06-22T06:18:54;6.43;;;4.13;;
10963;SDS011;5534;48.784;9.190;2023-06-22T06:21:21;5.15;;;4.03;;
10963;SDS011;5534;48.784;9.190;2023-06-22T06:23:47;5.25;;;4.10;;
10963;SDS011;5534;48.784;9.190;2023-06-22T06:26:12;6.45;;;4.82;;
10963;SDS011;5534;48.784;9.190;2023-06-22T06:28:41;6.30;;;4.55;;
10963;SDS011;5534;48.784;9.190;2023-06-22T06:31:08;7.32;;;4.60;;
10963;SDS011;5534;48.784;9.190;2023-06-22T06:33:34;6.57;;;4.40;;
10963;SDS011;5534;48.784;9.190;2023-06-22T06:36:00;9.90;;;4.65;;
10963;SDS011;5534;48.784;9.190;2023-06-22T06:38:30;5.65;;;4.07;;
10963;SDS011;5534;48.784;9.190;2023-06-22T06:40:56;6.93;;;4.18;;
10963;SDS011;5534;48.784;9.190;2023-06-22T06:43:23;6.13;;;3.90;;
10963;SDS011;5534;48.784;9.190;2023-06-22T06:45:50;5.15;;;4.05;;
10963;SDS011;5534;48.784;9.190;2023-06-22T06:48:15;5.38;;;4.35;;
10963;SDS011;5534;48.784;9.190;2023-06-22T06:50:42;5.32;;;4.20;;
10963;SDS011;5534;48.784;9.190;2023-06-22T06:53:09;5.43;;;4.15;;
10963;SDS011;5534;48.784;9.190;2023-06-22T06:55:35;5.45;;;4.30;;
10963;SDS011;5534;48.784;9.190;2023-06-22T06:58:01;5.55;;;3.90;;
10963;SDS011;5534;48.784;9.190;2023-06-22T07:00:29;4.50;;;3.60;;
10963;SDS011;5534;48.784;9.190;2023-06-22T07:02:55;4.80;;;3.70;;
10963;SDS011;5534;48.784;9.190;2023-06-22T07:05:20;7.18;;;3.75;;
10963;SDS011;5534;48.784;9.190;2023-06-22T07:07:46;5.57;;;3.60;;
10963;SDS011;5534;48.784;9.190;2023-06-22T07:10:12;4.88;;;4.13;;
10963;SDS011;5534;48.784;9.190;2023-06-22T07:12:38;7.85;;;4.13;;
10963;SDS011;5534;48.784;9.190;2023-06-22T07:15:04;7.60;;;4.00;;
10963;SDS011;5534;48.784;9.190;2023-06-22T07:17:33;5.25;;;4.00;;
10963;SDS011;5534;48.784;9.190;2023-06-22T07:20:00;4.00;;;3.60;;
10963;SDS011;5534;48.784;9.190;2023-06-22T07:22:26;5.65;;;4.40;;
10963;SDS011;5534;48.784;9.190;2023-06-22T07:24:52;4.55;;;3.92;;
10963;SDS011;5534;48.784;9.190;2023-06-22T07:27:17;8.25;;;3.72;;
10963;SDS011;5534;48.784;9.190;2023-06-22T07:29:44;4.38;;;3.83;;
10963;SDS011;5534;48.784;9.190;2023-06-22T07:32:10;4.50;;;3.80;;
10963;SDS011;5534;48.784;9.190;2023-06-22T07:34:36;6.18;;;3.70;;
10963;SDS011;5534;48.784;9.190;2023-06-22T07:37:02;6.63;;;3.80;;
10963;SDS011;5534;48.784;9.190;2023-06-22T07:39:28;7.15;;;4.00;;
10963;SDS011;5534;48.784;9.190;2023-06-22T07:41:54;5.10;;;3.90;;
10963;SDS011;5534;48.784;9.190;2023-06-22T07:44:19;5.35;;;3.75;;
10963;SDS011;5534;48.784;9.190;2023-06-22T07:46:45;4.82;;;3.60;;
10963;SDS011;5534;48.784;9.190;2023-06-22T07:49:11;4.47;;;3.33;;
10963;SDS011;5534;48.784;9.190;2023-06-22T07:51:37;4.80;;;3.53;;
10963;SDS011;5534;48.784;9.190;2023-06-22T07:54:05;5.07;;;3.88;;
10963;SDS011;5534;48.784;9.190;2023-06-22T07:56:32;6.25;;;4.10;;
10963;SDS011;5534;48.784;9.190;2023-06-22T07:58:58;10.70;;;3.42;;
10963;SDS011;5534;48.784;9.190;2023-06-22T08:01:26;6.50;;;3.85;;
10963;SDS011;5534;48.784;9.190;2023-06-22T08:03:51;5.60;;;3.40;;
10963;SDS011;5534;48.784;9.190;2023-06-22T08:06:17;6.10;;;4.00;;
10963;SDS011;5534;48.784;9.190;2023-06-22T08:08:43;6.40;;;4.18;;
10963;SDS011;5534;48.784;9.190;2023-06-22T08:11:09;6.45;;;3.85;;
10963;SDS011;5534;48.784;9.190;2023-06-22T08:13:35;5.15;;;3.67;;
10963;SDS011;5534;48.784;9.190;2023-06-22T08:16:00;4.88;;;4.00;;
10963;SDS011;5534;48.784;9.190;2023-06-22T08:18:26;5.07;;;3.90;;
10963;SDS011;5534;48.784;9.190;2023-06-22T08:20:53;5.10;;;3.70;;
10963;SDS011;5534;48.784;9.190;2023-06-22T08:23:19;6.32;;;3.88;;
10963;SDS011;5534;48.784;9.190;2023-06-22T08:25:45;5.32;;;3.72;;
10963;SDS011;5534;48.784;9.190;2023-06-22T08:28:11;5.47;;;4.05;;
10963;SDS011;5534;48.784;9.190;2023-06-22T08:30:38;6.00;;;3.88;;
10963;SDS011;5534;48.784;9.190;2023-06-22T08:33:04;5.68;;;3.53;;
10963;SDS011;5534;48.784;9.190;2023-06-22T08:35:30;6.30;;;3.95;;
10963;SDS011;5534;48.784;9.190;2023-06-22T08:37:55;8.70;;;3.95;;
10963;SDS011;5534;48.784;9.190;2023-06-22T08:40:22;4.90;;;3.80;;
10963;SDS011;5534;48.784;9.190;2023-06-22T08:42:48;6.22;;;3.95;;
10963;SDS011;5534;48.784;9.190;2023-06-22T08:45:14;6.93;;;3.70;;
10963;SDS011;5534;48.784;9.190;2023-06-22T08:47:41;4.53;;;3.30;;
10963;SDS011;5534;48.784;9.190;2023-06-22T08:50:08;4.50;;;3.50;;
10963;SDS011;5534;48.784;9.190;2023-06-22T08:52:35;6.47;;;3.63;;
10963;SDS011;5534;48.784;9.190;2023-06-22T08:55:01;5.78;;;3.72;;
10963;SDS011;5534;48.784;9.190;2023-06-22T08:57:27;8.77;;;3.97;;
10963;SDS011;5534;48.784;9.190;2023-06-22T08:59:54;8.45;;;3.30;;
10963;SDS011;5534;48.784;9.190;2023-06-22T09:02:23;7.65;;;3.65;;
10963;SDS011;5534;48.784;9.190;2023-06-22T09:04:49;5.65;;;3.53;;
10963;SDS011;5534;48.784;9.190;2023-06-22T09:07:20;6.53;;;3.80;;
10963;SDS011;5534;48.784;9.190;2023-06-22T09:09:48;6.18;;;3.40;;
10963;SDS011;5534;48.784;9.190;2023-06-22T09:12:14;5.82;;;3.42;;
10963;SDS011;5534;48.784;9.190;2023-06-22T09:14:40;6.30;;;3.50;;
10963;SDS011;5534;48.784;9.190;2023-06-22T09:17:06;7.65;;;4.20;;
10963;SDS011;5534;48.784;9.190;2023-06-22T09:19:31;6.22;;;4.35;;
10963;SDS011;5534;48.784;9.190;2023-06-22T09:21:58;7.05;;;3.67;;
10963;SDS011;5534;48.784;9.190;2023-06-22T09:24:24;8.38;;;3.75;;
10963;SDS011;5534;48.784;9.190;2023-06-22T09:26:50;7.32;;;4.63;;
10963;SDS011;5534;48.784;9.190;2023-06-22T09:29:16;5.10;;;3.53;;
10963;SDS011;5534;48.784;9.190;2023-06-22T09:31:42;6.75;;;3.60;;
10963;SDS011;5534;48.784;9.190;2023-06-22T09:34:07;7.15;;;4.25;;
10963;SDS011;5534;48.784;9.190;2023-06-22T09:36:33;5.57;;;3.72;;
10963;SDS011;5534;48.784;9.190;2023-06-22T09:39:00;7.85;;;4.70;;
10963;SDS011;5534;48.784;9.190;2023-06-22T09:41:35;6.47;;;4.18;;
10963;SDS011;5534;48.784;9.190;2023-06-22T09:44:01;9.35;;;4.68;;
10963;SDS011;5534;48.784;9.190;2023-06-22T09:46:27;9.52;;;6.45;;
10963;SDS011;5534;48.784;9.190;2023-06-22T09:48:54;7.07;;;5.13;;
10963;SDS011;5534;48.784;9.190;2023-06-22T09:51:19;6.05;;;4.88;;
10963;SDS011;5534;48.784;9.190;2023-06-22T09:53:47;8.90;;;4.32;;
10963;SDS011;5534;48.784;9.190;2023-06-22T09:56:13;7.13;;;4.22;;
10963;SDS011;5534;48.784;9.190;2023-06-22T09:58:43;6.88;;;4.22;;
10963;SDS011;5534;48.784;9.190;2023-06-22T10:01:11;5.10;;;3.60;;
10963;SDS011;5534;48.784;9.190;2023-06-22T10:03:39;7.95;;;4.40;;
10963;SDS011;5534;48.784;9.190;2023-06-22T10:06:06;9.93;;;4.57;;
10963;SDS011;5534;48.784;9.190;2023-06-22T10:08:33;7.82;;;4.00;;
10963;SDS011;5534;48.784;9.190;2023-06-22T10:10:58;8.98;;;4.32;;
10963;SDS011;5534;48.784;9.190;2023-06-22T10:13:25;9.25;;;4.13;;
10963;SDS011;5534;48.784;9.190;2023-06-22T10:15:51;5.75;;;3.67;;
10963;SDS011;5534;48.784;9.190;2023-06-22T10:18:18;8.75;;;4.43;;
10963;SDS011;5534;48.784;9.190;2023-06-22T10:20:48;6.25;;;3.92;;
10963;SDS011;5534;48.784;9.190;2023-06-22T10:23:20;8.45;;;3.83;;
10963;SDS011;5534;48.784;9.190;2023-06-22T10:25:48;7.55;;;4.95;;
10963;SDS011;5534;48.784;9.190;2023-06-22T10:28:13;8.38;;;3.95;;
10963;SDS011;5534;48.784;9.190;2023-06-22T10:30:40;6.07;;;3.53;;
10963;SDS011;5534;48.784;9.190;2023-06-22T10:33:07;8.68;;;5.05;;
10963;SDS011;5534;48.784;9.190;2023-06-22T10:35:33;11.90;;;4.38;;
10963;SDS011;5534;48.784;9.190;2023-06-22T10:37:59;8.43;;;4.20;;
10963;SDS011;5534;48.784;9.190;2023-06-22T10:40:25;7.25;;;4.32;;
10963;SDS011;5534;48.784;9.190;2023-06-22T10:42:52;12.07;;;5.40;;
10963;SDS011;5534;48.784;9.190;2023-06-22T10:45:18;8.77;;;5.28;;
10963;SDS011;5534;48.784;9.190;2023-06-22T10:47:43;12.00;;;4.57;;
10963;SDS011;5534;48.784;9.190;2023-06-22T10:50:10;7.22;;;4.50;;
10963;SDS011;5534;48.784;9.190;2023-06-22T10:52:36;9.80;;;4.20;;
10963;SDS011;5534;48.784;9.190;2023-06-22T10:55:02;9.48;;;4.70;;
10963;SDS011;5534;48.784;9.190;2023-06-22T10:57:29;7.38;;;4.05;;
10963;SDS011;5534;48.784;9.190;2023-06-22T10:59:55;9.18;;;4.38;;
10963;SDS011;5534;48.784;9.190;2023-06-22T11:02:21;6.78;;;4.53;;
10963;SDS011;5534;48.784;9.190;2023-06-22T11:04:46;6.82;;;4.13;;
10963;SDS011;5534;48.784;9.190;2023-06-22T11:07:12;8.00;;;3.63;;
10963;SDS011;5534;48.784;9.190;2023-06-22T11:09:38;9.48;;;3.95;;
10963;SDS011;5534;48.784;9.190;2023-06-22T11:12:04;6.88;;;3.70;;
10963;SDS011;5534;48.784;9.190;2023-06-22T11:14:32;5.20;;;3.28;;
10963;SDS011;5534;48.784;9.190;2023-06-22T11:17:01;6.68;;;4.40;;
10963;SDS011;5534;48.784;9.190;2023-06-22T11:19:27;10.10;;;4.90;;
10963;SDS011;5534;48.784;9.190;2023-06-22T11:21:53;9.68;;;4.95;;
10963;SDS011;5534;48.784;9.190;2023-06-22T11:24:18;8.43;;;5.28;;
10963;SDS011;5534;48.784;9.190;2023-06-22T11:26:44;14.05;;;6.63;;
10963;SDS011;5534;48.784;9.190;2023-06-22T11:29:10;11.52;;;4.00;;
10963;SDS011;5534;48.784;9.190;2023-06-22T11:31:36;5.57;;;3.75;;
10963;SDS011;5534;48.784;9.190;2023-06-22T11:34:03;7.20;;;4.82;;
10963;SDS011;5534;48.784;9.190;2023-06-22T11:36:29;9.80;;;5.43;;
10963;SDS011;5534;48.784;9.190;2023-06-22T11:38:57;8.60;;;4.82;;
10963;SDS011;5534;48.784;9.190;2023-06-22T11:41:23;9.88;;;4.88;;
10963;SDS011;5534;48.784;9.190;2023-06-22T11:43:49;8.68;;;4.18;;
10963;SDS011;5534;48.784;9.190;2023-06-22T11:46:15;6.90;;;4.13;;
10963;SDS011;5534;48.784;9.190;2023-06-22T11:48:41;8.57;;;4.28;;
10963;SDS011;5534;48.784;9.190;2023-06-22T11:51:06;23.55;;;18.20;;
10963;SDS011;5534;48.784;9.190;2023-06-22T11:53:33;22.38;;;14.68;;
10963;SDS011;5534;48.784;9.190;2023-06-22T11:56:00;13.70;;;7.05;;
10963;SDS011;5534;48.784;9.190;2023-06-22T11:58:26;13.43;;;7.40;;
10963;SDS011;5534;48.784;9.190;2023-06-22T12:00:52;18.23;;;11.45;;
10963;SDS011;5534;48.784;9.190;2023-06-22T12:03:19;7.63;;;4.25;;
10963;SDS011;5534;48.784;9.190;2023-06-22T12:05:46;9.20;;;4.38;;
10963;SDS011;5534;48.784;9.190;2023-06-22T12:08:13;11.23;;;5.03;;
10963;SDS011;5534;48.784;9.190;2023-06-22T12:10:41;7.32;;;3.88;;
10963;SDS011;5534;48.784;9.190;2023-06-22T12:13:10;7.20;;;3.67;;
10963;SDS011;5534;48.784;9.190;2023-06-22T12:15:36;7.03;;;4.32;;
10963;SDS011;5534;48.784;9.190;2023-06-22T12:18:02;8.77;;;4.35;;
10963;SDS011;5534;48.784;9.190;2023-06-22T12:20:29;9.25;;;4.13;;
10963;SDS011;5534;48.784;9.190;2023-06-22T12:22:55;7.38;;;4.15;;
10963;SDS011;5534;48.784;9.190;2023-06-22T12:25:25;7.43;;;4.40;;
10963;SDS011;5534;48.784;9.190;2023-06-22T12:27:51;6.72;;;4.30;;
10963;SDS011;5534;48.784;9.190;2023-06-22T12:30:20;6.35;;;4.20;;
10963;SDS011;5534;48.784;9.190;2023-06-22T12:32:46;5.10;;;3.53;;
10963;SDS011;5534;48.784;9.190;2023-06-22T12:35:11;5.95;;;4.00;;
10963;SDS011;5534;48.784;9.190;2023-06-22T12:37:40;5.45;;;3.30;;
10963;SDS011;5534;48.784;9.190;2023-06-22T12:40:06;11.30;;;4.45;;
10963;SDS011;5534;48.784;9.190;2023-06-22T12:42:32;5.72;;;3.53;;
10963;SDS011;5534;48.784;9.190;2023-06-22T12:44:58;5.88;;;3.95;;
10963;SDS011;5534;48.784;9.190;2023-06-22T12:47:24;6.78;;;4.18;;
10963;SDS011;5534;48.784;9.190;2023-06-22T12:49:50;6.85;;;3.50;;
10963;SDS011;5534;48.784;9.190;2023-06-22T12:52:15;9.00;;;4.35;;
10963;SDS011;5534;48.784;9.190;2023-06-22T12:54:43;10.23;;;4.30;;
10963;SDS011;5534;48.784;9.190;2023-06-22T12:57:08;10.35;;;4.70;;
10963;SDS011;5534;48.784;9.190;2023-06-22T12:59:34;7.57;;;4.85;;
10963;SDS011;5534;48.784;9.190;2023-06-22T13:02:00;7.50;;;3.83;;
10963;SDS011;5534;48.784;9.190;2023-06-22T13:04:25;10.23;;;3.92;;
10963;SDS011;5534;48.784;9.190;2023-06-22T13:06:54;6.35;;;3.25;;
10963;SDS011;5534;48.784;9.190;2023-06-22T13:09:20;9.30;;;4.22;;
10963;SDS011;5534;48.784;9.190;2023-06-22T13:11:45;7.40;;;3.33;;
10963;SDS011;5534;48.784;9.190;2023-06-22T13:14:11;6.40;;;3.65;;
10963;SDS011;5534;48.784;9.190;2023-06-22T13:16:37;7.40;;;3.63;;
10963;SDS011;5534;48.784;9.190;2023-06-22T13:19:04;4.05;;;3.60;;
10963;SDS011;5534;48.784;9.190;2023-06-22T13:21:30;6.35;;;3.47;;
10963;SDS011;5534;48.784;9.190;2023-06-22T13:23:56;9.40;;;4.07;;
10963;SDS011;5534;48.784;9.190;2023-06-22T13:26:22;6.50;;;3.95;;
10963;SDS011;5534;48.784;9.190;2023-06-22T13:28:51;7.68;;;3.70;;
10963;SDS011;5534;48.784;9.190;2023-06-22T13:31:17;12.23;;;4.68;;
10963;SDS011;5534;48.784;9.190;2023-06-22T13:33:43;6.75;;;4.55;;
10963;SDS011;5534;48.784;9.190;2023-06-22T13:36:11;9.93;;;3.97;;
10963;SDS011;5534;48.784;9.190;2023-06-22T13:38:37;9.85;;;4.72;;
10963;SDS011;5534;48.784;9.190;2023-06-22T13:41:08;9.73;;;4.50;;
10963;SDS011;5534;48.784;9.190;2023-06-22T13:43:34;11.23;;;4.55;;
10963;SDS011;5534;48.784;9.190;2023-06-22T13:45:59;8.60;;;4.10;;
10963;SDS011;5534;48.784;9.190;2023-06-22T13:48:25;7.65;;;3.88;;
10963;SDS011;5534;48.784;9.190;2023-06-22T13:50:51;9.15;;;4.07;;
10963;SDS011;5534;48.784;9.190;2023-06-22T13:53:17;7.25;;;3.88;;
10963;SDS011;5534;48.784;9.190;2023-06-22T13:55:43;10.43;;;4.78;;
10963;SDS011;5534;48.784;9.190;2023-06-22T13:58:09;9.82;;;4.07;;
10963;SDS011;5534;48.784;9.190;2023-06-22T14:00:35;5.60;;;3.35;;
10963;SDS011;5534;48.784;9.190;2023-06-22T14:03:00;4.65;;;3.65;;
10963;SDS011;5534;48.784;9.190;2023-06-22T14:05:26;7.97;;;3.75;;
10963;SDS011;5534;48.784;9.190;2023-06-22T14:07:52;8.18;;;4.03;;
10963;SDS011;5534;48.784;9.190;2023-06-22T14:10:18;6.10;;;4.35;;
10963;SDS011;5534;48.784;9.190;2023-06-22T14:12:43;9.98;;;4.03;;
10963;SDS011;5534;48.784;9.190;2023-06-22T14:15:10;6.35;;;3.88;;
10963;SDS011;5534;48.784;9.190;2023-06-22T14:17:35;10.05;;;3.72;;
10963;SDS011;5534;48.784;9.190;2023-06-22T14:20:01;7.32;;;4.15;;
10963;SDS011;5534;48.784;9.190;2023-06-22T14:22:27;8.40;;;3.72;;
10963;SDS011;5534;48.784;9.190;2023-06-22T14:24:56;7.13;;;3.75;;
10963;SDS011;5534;48.784;9.190;2023-06-22T14:27:23;9.32;;;3.95;;
10963;SDS011;5534;48.784;9.190;2023-06-22T14:29:49;5.75;;;3.53;;
10963;SDS011;5534;48.784;9.190;2023-06-22T14:32:15;7.90;;;3.25;;
10963;SDS011;5534;48.784;9.190;2023-06-22T14:34:40;5.80;;;3.25;;
10963;SDS011;5534;48.784;9.190;2023-06-22T14:37:07;7.55;;;3.97;;
10963;SDS011;5534;48.784;9.190;2023-06-22T14:39:35;8.55;;;3.72;;
10963;SDS011;5534;48.784;9.190;2023-06-22T14:42:01;7.40;;;3.70;;
10963;SDS011;5534;48.784;9.190;2023-06-22T14:44:28;5.22;;;3.03;;
10963;SDS011;5534;48.784;9.190;2023-06-22T14:46:54;9.32;;;3.10;;
10963;SDS011;5534;48.784;9.190;2023-06-22T14:49:23;6.97;;;3.08;;
10963;SDS011;5534;48.784;9.190;2023-06-22T14:51:50;5.43;;;2.72;;
10963;SDS011;5534;48.784;9.190;2023-06-22T14:54:15;5.40;;;3.00;;
10963;SDS011;5534;48.784;9.190;2023-06-22T14:56:41;7.57;;;3.17;;
10963;SDS011;5534;48.784;9.190;2023-06-22T14:59:08;7.00;;;3.58;;
10963;SDS011;5534;48.784;9.190;2023-06-22T15:01:34;9.90;;;3.75;;
10963;SDS011;5534;48.784;9.190;2023-06-22T15:04:00;13.30;;;3.90;;
10963;SDS011;5534;48.784;9.190;2023-06-22T15:06:26;9.10;;;3.10;;
10963;SDS011;5534;48.784;9.190;2023-06-22T15:08:52;9.70;;;3.00;;